Time;durP1;ratioP1;P1;durP2;ratioP2;P2;SDS_P1;SDS_P2;PMS_P1;PMS_P2;Temp;Humidity;BMP_temperature;BMP_pressure;BME280_temperature;BME280_humidity;BME280_pressure;Samples;Min_cycle;Max_cycle;Signal;HPM_P1;HPM_P2
2022/11/13 00:00:28;;;;;;;19.03;14.37;;;10.30;99.90;;;;;;5012699;28;20172;-67
2022/11/13 00:02:53;;;;;;;20.93;15.50;;;10.20;99.90;;;;;;5014088;28;20205;-67
2022/11/13 00:05:19;;;;;;;18.03;13.70;;;10.20;99.90;;;;;;5015704;28;20523;-67
2022/11/13 00:07:45;;;;;;;22.70;15.70;;;10.30;99.90;;;;;;5015613;28;20646;-67
2022/11/13 00:10:10;;;;;;;20.30;15.63;;;10.30;99.90;;;;;;5015414;28;20199;-67
2022/11/13 00:12:36;;;;;;;17.37;13.67;;;10.30;99.90;;;;;;5013362;28;20214;-66
2022/11/13 00:15:01;;;;;;;18.37;13.97;;;10.30;99.90;;;;;;5015889;28;20601;-67
2022/11/13 00:17:28;;;;;;;20.77;14.80;;;10.30;99.90;;;;;;5016285;28;20180;-67
2022/11/13 00:19:54;;;;;;;17.63;14.17;;;10.30;99.90;;;;;;5016494;28;20188;-66
2022/11/13 00:22:19;;;;;;;19.97;13.93;;;10.30;99.90;;;;;;5016064;28;20443;-66
2022/11/13 00:24:45;;;;;;;18.13;14.03;;;10.40;99.90;;;;;;5015211;28;20466;-67
2022/11/13 00:27:11;;;;;;;20.57;14.03;;;10.40;99.90;;;;;;5012320;28;20188;-67
2022/11/13 00:29:37;;;;;;;18.20;13.07;;;10.40;99.90;;;;;;5012810;28;20239;-66
2022/11/13 00:32:03;;;;;;;19.30;13.17;;;10.30;99.90;;;;;;5015408;28;20459;-65
2022/11/13 00:34:29;;;;;;;16.23;11.87;;;10.40;99.90;;;;;;5015496;28;20505;-66
2022/11/13 00:36:54;;;;;;;18.37;13.47;;;10.40;99.90;;;;;;5014349;28;20522;-68
2022/11/13 00:39:20;;;;;;;15.13;11.20;;;10.40;99.90;;;;;;4982139;28;20531;-68
2022/11/13 00:41:45;;;;;;;14.30;12.80;;;10.40;99.90;;;;;;5015288;28;20180;-68
2022/11/13 00:44:11;;;;;;;16.47;11.63;;;10.40;99.90;;;;;;5015640;28;20200;-68
2022/11/13 00:46:36;;;;;;;15.23;10.70;;;10.30;99.90;;;;;;5015041;28;20176;-66
2022/11/13 00:49:02;;;;;;;13.60;11.30;;;10.40;99.90;;;;;;5014366;28;20290;-67
2022/11/13 00:51:28;;;;;;;21.23;13.13;;;10.40;99.90;;;;;;5016045;28;20183;-67
2022/11/13 00:53:53;;;;;;;16.37;12.27;;;10.40;99.90;;;;;;5014920;28;20192;-67
2022/11/13 00:56:19;;;;;;;12.90;10.07;;;10.40;99.90;;;;;;5015214;28;20187;-67
2022/11/13 00:58:45;;;;;;;16.23;12.53;;;10.40;99.90;;;;;;5015792;28;20182;-68
2022/11/13 01:01:13;;;;;;;18.30;11.77;;;10.40;99.90;;;;;;5014257;28;20237;-67
2022/11/13 01:03:39;;;;;;;12.10;10.03;;;10.40;99.90;;;;;;5015390;28;20261;-68
2022/11/13 01:06:15;;;;;;;22.83;11.17;;;10.40;99.90;;;;;;5014621;28;20944;-68
2022/11/13 01:08:41;;;;;;;11.23;9.40;;;10.40;99.90;;;;;;5007324;28;20477;-67
2022/11/13 01:11:12;;;;;;;16.80;11.10;;;10.40;99.90;;;;;;5016755;28;20439;-67
2022/11/13 01:13:39;;;;;;;17.87;11.60;;;10.40;99.90;;;;;;5014610;28;20454;-68
2022/11/13 01:16:07;;;;;;;14.03;11.50;;;10.40;99.90;;;;;;5014622;28;20431;-66
2022/11/13 01:18:34;;;;;;;16.63;13.40;;;10.40;99.90;;;;;;5014044;28;20461;-66
2022/11/13 01:21:09;;;;;;;18.60;13.03;;;10.40;99.90;;;;;;5013310;28;20430;-67
2022/11/13 01:23:35;;;;;;;18.00;12.90;;;10.40;99.90;;;;;;5011160;28;20518;-66
2022/11/13 01:26:06;;;;;;;18.93;12.63;;;10.40;99.90;;;;;;5015820;28;20420;-67
2022/11/13 01:28:31;;;;;;;18.70;10.87;;;10.40;99.90;;;;;;5007552;28;20962;-67
2022/11/13 01:30:57;;;;;;;11.70;10.37;;;10.40;99.90;;;;;;5014210;28;20497;-66
2022/11/13 01:33:23;;;;;;;14.33;9.83;;;10.40;99.90;;;;;;5013904;28;20348;-66
2022/11/13 01:35:48;;;;;;;17.47;12.47;;;10.40;99.90;;;;;;5013636;28;20220;-66
2022/11/13 01:38:14;;;;;;;16.50;12.30;;;10.40;99.90;;;;;;5016827;28;20176;-66
2022/11/13 01:40:46;;;;;;;17.10;11.93;;;10.40;99.90;;;;;;5009389;28;20180;-64
2022/11/13 01:43:30;;;;;;;17.77;11.10;;;10.40;99.90;;;;;;5013976;28;20195;-65
2022/11/13 01:45:59;;;;;;;15.83;11.50;;;10.40;99.90;;;;;;5013835;28;20446;-65
2022/11/13 01:48:41;;;;;;;17.50;12.30;;;10.40;99.90;;;;;;5014028;28;20431;-65
2022/11/13 01:51:28;;;;;;;14.40;11.57;;;10.40;99.90;;;;;;5010552;28;20430;-65
2022/11/13 01:53:55;;;;;;;20.60;12.70;;;10.40;99.90;;;;;;5010366;28;20462;-66
2022/11/13 01:56:21;;;;;;;16.33;13.40;;;10.40;99.90;;;;;;5011519;28;20431;-65
2022/11/13 01:58:53;;;;;;;16.40;12.13;;;10.40;99.90;;;;;;5012346;28;20806;-65
2022/11/13 02:01:19;;;;;;;15.63;11.77;;;10.50;99.90;;;;;;5013995;28;20478;-67
2022/11/13 02:03:45;;;;;;;14.80;11.83;;;10.40;99.90;;;;;;5007477;28;20483;-65
2022/11/13 02:06:11;;;;;;;21.63;13.40;;;10.40;99.90;;;;;;5018570;28;20599;-66
2022/11/13 02:08:37;;;;;;;16.80;11.90;;;10.40;99.90;;;;;;5018630;28;20267;-65
2022/11/13 02:11:03;;;;;;;18.20;11.80;;;10.40;99.90;;;;;;5013690;28;20529;-65
2022/11/13 02:13:28;;;;;;;15.00;12.37;;;10.40;99.90;;;;;;5011496;28;20800;-65
2022/11/13 02:15:55;;;;;;;17.80;12.73;;;10.50;99.90;;;;;;5012855;28;20299;-66
2022/11/13 02:18:22;;;;;;;15.37;12.50;;;10.50;99.90;;;;;;5012827;28;20192;-65
2022/11/13 02:21:09;;;;;;;14.90;12.80;;;10.50;99.90;;;;;;5016166;28;20439;-65
2022/11/13 02:23:40;;;;;;;18.53;12.33;;;10.40;99.90;;;;;;5019626;28;20484;-66
2022/11/13 02:26:08;;;;;;;19.80;13.33;;;10.40;99.90;;;;;;5018349;28;20446;-65
2022/11/13 02:28:34;;;;;;;17.07;13.30;;;10.40;99.90;;;;;;5018061;28;20443;-65
2022/11/13 02:31:11;;;;;;;15.23;11.30;;;10.40;99.90;;;;;;5020353;28;20494;-65
2022/11/13 02:33:36;;;;;;;17.60;12.70;;;10.40;99.90;;;;;;5014236;28;20207;-65
2022/11/13 02:36:04;;;;;;;20.30;13.93;;;10.40;99.90;;;;;;5013237;28;20407;-67
2022/11/13 02:38:31;;;;;;;16.60;12.77;;;10.40;99.90;;;;;;5014579;28;20180;-66
2022/11/13 02:40:56;;;;;;;18.20;14.10;;;10.40;99.90;;;;;;5014413;28;20407;-64
2022/11/13 02:43:22;;;;;;;15.70;13.30;;;10.40;99.90;;;;;;5015098;28;20870;-65
2022/11/13 02:45:47;;;;;;;19.60;14.07;;;10.40;99.90;;;;;;5015387;28;20165;-66
2022/11/13 02:48:13;;;;;;;19.07;13.77;;;10.40;99.90;;;;;;5015478;28;20191;-66
2022/11/13 02:50:39;;;;;;;17.83;13.37;;;10.40;99.90;;;;;;5016661;28;20204;-66
2022/11/13 02:53:06;;;;;;;22.23;15.50;;;10.40;99.90;;;;;;5012826;28;20191;-66
2022/11/13 02:55:31;;;;;;;22.60;13.30;;;10.40;99.90;;;;;;5014171;28;20474;-66
2022/11/13 02:57:57;;;;;;;21.13;15.53;;;10.40;99.90;;;;;;5014652;28;20415;-66
2022/11/13 03:00:23;;;;;;;17.67;14.80;;;10.40;99.90;;;;;;5003489;28;20541;-66
2022/11/13 03:02:49;;;;;;;20.50;14.80;;;10.40;99.90;;;;;;5012247;28;20245;-65
2022/11/13 03:05:14;;;;;;;20.57;13.67;;;10.40;99.90;;;;;;4995482;28;20207;-63
2022/11/13 03:07:41;;;;;;;19.33;13.13;;;10.40;99.90;;;;;;5014495;28;20187;-65
2022/11/13 03:10:08;;;;;;;23.70;14.57;;;10.40;99.90;;;;;;5010876;28;20669;-65
2022/11/13 03:12:34;;;;;;;18.27;14.27;;;10.40;99.90;;;;;;5006905;28;20505;-65
2022/11/13 03:14:59;;;;;;;13.87;11.40;;;10.40;99.90;;;;;;5029866;28;20418;-66
2022/11/13 03:17:25;;;;;;;18.30;14.30;;;10.40;99.90;;;;;;5007626;28;20220;-65
2022/11/13 03:19:50;;;;;;;18.40;13.07;;;10.40;99.90;;;;;;4995068;28;20181;-66
2022/11/13 03:22:16;;;;;;;18.87;12.83;;;10.40;99.90;;;;;;5007756;28;20187;-66
2022/11/13 03:24:41;;;;;;;18.50;13.00;;;10.40;99.90;;;;;;5015137;28;20322;-66
2022/11/13 03:27:07;;;;;;;13.97;10.93;;;10.40;99.90;;;;;;5010434;28;20191;-66
2022/11/13 03:29:32;;;;;;;16.70;11.77;;;10.40;99.90;;;;;;4993365;28;20201;-66
2022/11/13 03:31:58;;;;;;;18.70;13.10;;;10.40;99.90;;;;;;4993343;28;20185;-65
2022/11/13 03:34:24;;;;;;;19.73;12.27;;;10.40;99.90;;;;;;4993167;28;20216;-65
2022/11/13 03:36:49;;;;;;;15.00;11.93;;;10.40;99.90;;;;;;5003827;28;20180;-65
2022/11/13 03:39:15;;;;;;;13.43;11.30;;;10.40;99.90;;;;;;4995680;28;20431;-65
2022/11/13 03:41:41;;;;;;;14.37;10.57;;;10.40;99.90;;;;;;5010346;28;20227;-66
2022/11/13 03:44:06;;;;;;;11.40;10.00;;;10.40;99.90;;;;;;5011543;28;20220;-66
2022/11/13 03:46:32;;;;;;;13.93;10.50;;;10.40;99.90;;;;;;5012715;28;20198;-66
2022/11/13 03:48:57;;;;;;;12.67;10.53;;;10.30;99.90;;;;;;4998129;28;20239;-67
2022/11/13 03:51:23;;;;;;;15.27;11.90;;;10.30;99.90;;;;;;5000030;28;20556;-67
2022/11/13 03:53:48;;;;;;;12.23;9.87;;;10.40;99.90;;;;;;5010958;28;20231;-66
2022/11/13 03:56:14;;;;;;;13.83;10.23;;;10.40;99.90;;;;;;5012331;28;20183;-67
2022/11/13 03:58:39;;;;;;;13.70;10.77;;;10.40;99.90;;;;;;5006233;28;20258;-66
2022/11/13 04:01:05;;;;;;;14.83;9.90;;;10.40;99.90;;;;;;5011722;28;20271;-66
2022/11/13 04:03:31;;;;;;;10.77;9.37;;;10.30;99.90;;;;;;5011611;28;20210;-66
2022/11/13 04:05:56;;;;;;;14.37;9.80;;;10.30;99.90;;;;;;5003434;28;20177;-65
2022/11/13 04:08:22;;;;;;;11.00;9.20;;;10.30;99.90;;;;;;5000463;28;20204;-65
2022/11/13 04:10:47;;;;;;;12.27;9.17;;;10.30;99.90;;;;;;5012021;28;20219;-66
2022/11/13 04:13:13;;;;;;;11.90;8.47;;;10.30;99.90;;;;;;5012023;28;20224;-66
2022/11/13 04:15:38;;;;;;;8.83;8.00;;;10.30;99.90;;;;;;5012110;28;20646;-66
2022/11/13 04:18:04;;;;;;;10.10;8.80;;;10.30;99.90;;;;;;4999028;28;20184;-67
2022/11/13 04:20:30;;;;;;;12.83;9.50;;;10.20;99.90;;;;;;5002127;28;20191;-66
2022/11/13 04:22:56;;;;;;;9.77;8.87;;;10.30;99.90;;;;;;4990642;28;20432;-66
2022/11/13 04:25:22;;;;;;;11.17;9.50;;;10.20;99.90;;;;;;5004350;28;20283;-65
2022/11/13 04:27:49;;;;;;;11.37;9.30;;;10.20;99.90;;;;;;5011631;28;20780;-66
2022/11/13 04:30:15;;;;;;;14.17;9.00;;;10.20;99.90;;;;;;5012019;28;20826;-66
2022/11/13 04:32:40;;;;;;;13.40;9.70;;;10.20;99.90;;;;;;4992805;28;20514;-66
2022/11/13 04:35:06;;;;;;;12.90;10.10;;;10.20;99.90;;;;;;5003702;28;20179;-66
2022/11/13 04:37:32;;;;;;;11.57;9.27;;;10.20;99.90;;;;;;5010740;28;20180;-66
2022/11/13 04:39:57;;;;;;;12.77;9.67;;;10.20;99.90;;;;;;5011436;28;20498;-65
2022/11/13 04:45:07;;;;;;;12.60;8.27;;;10.20;99.90;;;;;;5002238;28;20258;-64
2022/11/13 04:47:33;;;;;;;13.90;9.37;;;10.10;99.90;;;;;;4992433;28;20412;-65
2022/11/13 04:49:59;;;;;;;12.23;8.50;;;10.10;99.90;;;;;;5000571;28;20462;-65
2022/11/13 04:52:25;;;;;;;10.67;9.40;;;10.20;99.90;;;;;;5011502;28;20975;-65
2022/11/13 04:54:50;;;;;;;13.27;9.40;;;10.10;99.90;;;;;;5003596;28;20200;-65
2022/11/13 04:57:16;;;;;;;12.03;8.77;;;10.10;99.90;;;;;;5002691;28;20195;-65
2022/11/13 04:59:41;;;;;;;13.53;8.27;;;10.10;99.90;;;;;;5010923;28;20184;-65
2022/11/13 05:02:07;;;;;;;12.07;8.67;;;10.10;99.90;;;;;;4993195;28;20538;-64
2022/11/13 05:04:32;;;;;;;9.83;7.90;;;10.10;99.90;;;;;;4996133;28;20200;-66
2022/11/13 05:06:58;;;;;;;13.77;8.20;;;10.10;99.90;;;;;;5011151;28;20198;-66
2022/11/13 05:09:23;;;;;;;11.30;9.13;;;10.10;99.90;;;;;;5007175;28;20227;-66
2022/11/13 05:11:49;;;;;;;9.00;7.70;;;10.10;99.90;;;;;;5000760;28;20219;-66
2022/11/13 05:14:14;;;;;;;11.20;8.67;;;10.10;99.90;;;;;;4996188;28;20250;-65
2022/11/13 05:16:40;;;;;;;16.37;9.97;;;10.10;99.90;;;;;;5007762;28;20235;-65
2022/11/13 05:19:06;;;;;;;13.73;8.67;;;10.00;99.90;;;;;;5008247;28;20235;-65
2022/11/13 05:21:33;;;;;;;13.50;9.43;;;10.00;99.90;;;;;;5009441;28;20198;-65
2022/11/13 05:23:58;;;;;;;13.20;8.80;;;10.10;99.90;;;;;;5008212;28;20239;-65
2022/11/13 05:26:25;;;;;;;15.00;9.10;;;10.00;99.90;;;;;;4991243;28;20420;-65
2022/11/13 05:28:51;;;;;;;13.07;9.10;;;10.00;99.90;;;;;;4992733;28;20205;-65
2022/11/13 05:31:17;;;;;;;10.47;9.33;;;10.00;99.90;;;;;;5011160;28;20432;-65
2022/11/13 05:36:16;;;;;;;12.60;9.80;;;10.10;99.90;;;;;;5012724;28;20200;-70
2022/11/13 05:38:42;;;;;;;13.83;9.77;;;10.10;99.90;;;;;;5002476;28;20418;-71
2022/11/13 05:41:10;;;;;;;12.33;11.10;;;10.10;99.90;;;;;;5017637;28;20908;-70
2022/11/13 05:43:37;;;;;;;24.60;10.80;;;10.10;99.90;;;;;;5016457;28;20464;-72
2022/11/13 05:46:07;;;;;;;18.73;12.90;;;10.10;99.90;;;;;;5017293;28;20470;-70
2022/11/13 05:48:33;;;;;;;12.73;11.43;;;10.10;99.90;;;;;;5017941;28;20461;-71
2022/11/13 05:51:04;;;;;;;12.47;9.90;;;10.10;99.90;;;;;;5015773;28;20530;-71
2022/11/13 05:53:32;;;;;;;13.43;10.70;;;10.10;99.90;;;;;;5004178;28;20459;-74
2022/11/13 05:56:07;;;;;;;17.23;12.13;;;10.10;99.90;;;;;;5017642;28;20891;-71
2022/11/13 05:58:33;;;;;;;16.87;13.63;;;10.10;99.90;;;;;;5011295;28;20426;-71
2022/11/13 06:01:15;;;;;;;20.60;13.80;;;10.10;99.90;;;;;;5005194;28;20909;-71
2022/11/13 06:03:42;;;;;;;17.10;12.73;;;10.10;99.90;;;;;;5018300;28;20416;-71
2022/11/13 06:06:10;;;;;;;18.47;13.87;;;10.10;99.90;;;;;;5017332;28;20433;-72
2022/11/13 06:08:36;;;;;;;17.70;13.30;;;10.00;99.90;;;;;;5017435;28;20815;-71
2022/11/13 06:11:04;;;;;;;14.40;11.40;;;10.00;99.90;;;;;;5017705;28;20396;-72
2022/11/13 06:13:30;;;;;;;15.90;11.40;;;10.00;99.90;;;;;;5015033;28;20440;-71
2022/11/13 06:16:04;;;;;;;25.23;14.33;;;10.00;99.90;;;;;;5015991;28;20974;-71
2022/11/13 06:18:31;;;;;;;17.47;12.77;;;10.00;99.90;;;;;;5015739;28;20852;-71
2022/11/13 06:21:16;;;;;;;17.00;13.13;;;10.00;99.90;;;;;;5017223;28;20426;-71
2022/11/13 06:23:42;;;;;;;18.73;13.63;;;10.00;99.90;;;;;;5017204;28;20811;-71
2022/11/13 06:26:12;;;;;;;17.60;13.00;;;10.00;99.90;;;;;;5017502;28;20407;-71
2022/11/13 06:28:38;;;;;;;21.63;14.03;;;10.00;99.90;;;;;;5017836;28;20399;-71
2022/11/13 06:31:09;;;;;;;16.10;13.10;;;10.00;99.90;;;;;;5017380;28;20411;-70
2022/11/13 06:33:36;;;;;;;18.43;12.30;;;10.10;99.90;;;;;;5010840;28;20435;-71
2022/11/13 06:36:03;;;;;;;14.20;11.53;;;10.00;99.90;;;;;;5015819;28;20454;-70
2022/11/13 06:38:31;;;;;;;15.43;11.47;;;10.00;99.90;;;;;;5017068;28;20415;-71
2022/11/13 06:40:57;;;;;;;18.33;11.63;;;10.00;99.90;;;;;;5017252;28;20451;-70
2022/11/13 06:43:22;;;;;;;15.40;11.93;;;10.10;99.90;;;;;;4999838;28;20465;-71
2022/11/13 06:45:48;;;;;;;17.50;12.23;;;10.10;99.90;;;;;;5016553;28;20283;-71
2022/11/13 06:48:13;;;;;;;14.07;11.00;;;10.10;99.90;;;;;;5013177;28;20658;-70
2022/11/13 06:50:39;;;;;;;16.53;10.77;;;10.10;99.90;;;;;;5011854;28;20615;-70
2022/11/13 06:53:05;;;;;;;20.20;13.73;;;10.10;99.90;;;;;;5012563;28;20706;-71
2022/11/13 06:55:30;;;;;;;19.10;10.90;;;10.10;99.90;;;;;;4992644;28;20227;-72
2022/11/13 06:57:56;;;;;;;13.03;9.87;;;10.10;99.90;;;;;;5008781;28;20170;-71
2022/11/13 07:00:22;;;;;;;16.10;10.20;;;10.10;99.90;;;;;;5013986;28;20183;-71
2022/11/13 07:02:49;;;;;;;12.03;10.53;;;10.10;99.90;;;;;;5013822;28;20758;-71
2022/11/13 07:05:15;;;;;;;18.70;11.10;;;10.10;99.90;;;;;;5013619;28;20203;-71
2022/11/13 07:07:40;;;;;;;14.43;9.50;;;10.10;99.90;;;;;;5011356;28;20426;-72
2022/11/13 07:10:06;;;;;;;18.60;12.70;;;10.10;99.90;;;;;;5011071;28;20481;-71
2022/11/13 07:12:32;;;;;;;22.00;12.60;;;10.10;99.90;;;;;;5012806;28;20177;-71
2022/11/13 07:14:57;;;;;;;19.07;11.40;;;10.10;99.90;;;;;;4990385;28;20468;-72
2022/11/13 07:17:23;;;;;;;17.73;12.87;;;10.10;99.90;;;;;;5011441;28;20547;-71
2022/11/13 07:19:49;;;;;;;13.13;9.50;;;10.10;99.90;;;;;;5012606;28;20488;-72
2022/11/13 07:22:14;;;;;;;16.50;10.73;;;10.10;99.90;;;;;;5012874;28;20227;-71
2022/11/13 07:24:41;;;;;;;15.60;11.00;;;10.10;99.90;;;;;;5012945;28;20199;-71
2022/11/13 07:27:07;;;;;;;15.10;12.50;;;10.10;99.90;;;;;;5012640;28;20551;-71
2022/11/13 07:29:33;;;;;;;18.47;12.73;;;10.10;99.90;;;;;;5012749;28;20451;-71
2022/11/13 07:31:58;;;;;;;19.23;12.13;;;10.10;99.90;;;;;;5007826;28;20442;-71
2022/11/13 07:34:24;;;;;;;19.67;13.53;;;10.10;99.90;;;;;;5002247;28;20204;-70
2022/11/13 07:36:49;;;;;;;16.20;12.90;;;10.10;99.90;;;;;;5011601;28;20187;-72
2022/11/13 07:39:15;;;;;;;16.50;13.63;;;10.20;99.90;;;;;;5012659;28;20176;-70
2022/11/13 07:41:41;;;;;;;21.87;14.53;;;10.20;99.90;;;;;;5012557;28;20183;-71
2022/11/13 07:44:06;;;;;;;18.30;13.43;;;10.20;99.90;;;;;;5012078;28;20199;-71
2022/11/13 07:46:32;;;;;;;19.40;12.60;;;10.20;99.90;;;;;;5012464;28;20192;-71
2022/11/13 07:48:57;;;;;;;19.90;11.97;;;10.30;99.90;;;;;;5011368;28;20208;-70
2022/11/13 07:51:23;;;;;;;22.90;13.50;;;10.20;99.90;;;;;;4977513;28;20602;-71
2022/11/13 07:53:49;;;;;;;22.40;13.23;;;10.20;99.90;;;;;;5012131;28;20171;-71
2022/11/13 07:56:14;;;;;;;20.80;13.63;;;10.20;99.90;;;;;;4998886;28;20173;-72
2022/11/13 07:58:40;;;;;;;18.10;13.90;;;10.20;99.90;;;;;;4994921;28;20181;-70
2022/11/13 08:01:06;;;;;;;15.77;12.20;;;10.20;99.90;;;;;;4997078;28;20255;-71
2022/11/13 08:03:32;;;;;;;19.13;13.57;;;10.20;99.90;;;;;;5008902;28;20172;-72
2022/11/13 08:06:05;;;;;;;25.63;15.03;;;10.20;99.90;;;;;;5003205;28;20200;-72
2022/11/13 08:08:32;;;;;;;25.40;13.13;;;10.20;99.90;;;;;;5010935;28;20498;-72
2022/11/13 08:10:57;;;;;;;21.83;14.93;;;10.30;99.90;;;;;;5012236;28;20515;-72
2022/11/13 08:13:23;;;;;;;20.37;13.40;;;10.30;99.90;;;;;;5012265;28;20419;-72
2022/11/13 08:15:49;;;;;;;19.13;12.90;;;10.30;99.90;;;;;;5007596;28;20243;-73
2022/11/13 08:18:14;;;;;;;23.80;13.37;;;10.30;99.90;;;;;;4993895;28;20207;-71
2022/11/13 08:20:40;;;;;;;18.90;13.67;;;10.30;99.90;;;;;;4999428;28;20435;-72
2022/11/13 08:23:06;;;;;;;24.60;14.30;;;10.30;99.90;;;;;;5009316;28;20199;-71
2022/11/13 08:25:32;;;;;;;19.53;11.50;;;10.30;99.90;;;;;;5010926;28;20215;-71
2022/11/13 08:27:58;;;;;;;18.53;12.83;;;10.30;99.90;;;;;;5008693;28;20233;-71
2022/11/13 08:30:26;;;;;;;19.83;14.07;;;10.30;99.90;;;;;;5011592;28;20546;-72
2022/11/13 08:32:52;;;;;;;19.53;12.23;;;10.40;99.90;;;;;;5012070;28;20559;-71
2022/11/13 08:35:18;;;;;;;19.37;13.27;;;10.30;99.90;;;;;;5011471;28;20458;-72
2022/11/13 08:37:44;;;;;;;21.37;13.37;;;10.40;99.90;;;;;;5009484;28;20528;-71
2022/11/13 08:40:10;;;;;;;17.67;12.27;;;10.30;99.90;;;;;;5010319;28;20509;-71
2022/11/13 08:42:35;;;;;;;18.23;11.63;;;10.30;99.90;;;;;;5010377;28;20263;-71
2022/11/13 08:45:01;;;;;;;18.40;11.50;;;10.30;99.90;;;;;;5010197;28;20513;-70
2022/11/13 08:47:28;;;;;;;18.40;12.30;;;10.30;99.90;;;;;;5011614;28;20631;-72
2022/11/13 08:49:54;;;;;;;18.70;11.20;;;10.40;99.90;;;;;;5011863;28;20203;-71
2022/11/13 08:52:20;;;;;;;18.37;12.30;;;10.40;99.90;;;;;;5011646;28;20906;-72
2022/11/13 08:54:46;;;;;;;19.87;12.37;;;10.40;99.90;;;;;;5008130;28;20482;-72
2022/11/13 08:57:11;;;;;;;21.87;13.30;;;10.40;99.90;;;;;;5009152;28;20497;-71
2022/11/13 08:59:37;;;;;;;17.43;12.03;;;10.40;99.90;;;;;;5000838;28;20676;-72
2022/11/13 09:02:03;;;;;;;18.73;12.80;;;10.40;99.90;;;;;;5002283;28;20172;-71
2022/11/13 09:04:29;;;;;;;21.53;12.80;;;10.40;99.90;;;;;;5011559;28;20204;-71
2022/11/13 09:06:54;;;;;;;16.17;12.00;;;10.40;99.90;;;;;;5011811;28;20407;-72
2022/11/13 09:09:21;;;;;;;20.33;13.40;;;10.40;99.90;;;;;;5004393;28;20212;-70
2022/11/13 09:11:47;;;;;;;16.50;11.13;;;10.40;99.90;;;;;;4992409;28;20260;-72
2022/11/13 09:14:13;;;;;;;18.27;11.90;;;10.50;99.90;;;;;;4991918;28;20522;-71
2022/11/13 09:16:39;;;;;;;19.70;12.67;;;10.40;99.90;;;;;;5005844;28;20299;-71
2022/11/13 09:19:04;;;;;;;18.77;12.57;;;10.40;99.90;;;;;;5012125;28;20481;-70
2022/11/13 09:21:30;;;;;;;20.70;12.90;;;10.40;99.90;;;;;;5011689;28;20178;-70
2022/11/13 09:23:55;;;;;;;21.67;14.73;;;10.50;99.90;;;;;;5011385;28;20542;-72
2022/11/13 09:26:21;;;;;;;24.13;15.20;;;10.50;99.90;;;;;;5009302;28;20177;-72
2022/11/13 09:28:47;;;;;;;17.63;12.07;;;10.50;99.90;;;;;;5002229;28;20538;-73
2022/11/13 09:31:13;;;;;;;18.70;13.73;;;10.50;99.90;;;;;;5009247;28;20164;-71
2022/11/13 09:33:38;;;;;;;20.27;13.60;;;10.50;99.90;;;;;;5008310;28;20191;-72
2022/11/13 09:36:14;;;;;;;21.53;13.87;;;10.60;99.90;;;;;;5010449;28;20176;-71
2022/11/13 09:38:40;;;;;;;18.90;13.63;;;10.60;99.90;;;;;;5010486;28;20199;-72
2022/11/13 09:41:10;;;;;;;17.90;13.37;;;10.60;99.90;;;;;;5010791;28;20430;-72
2022/11/13 09:43:49;;;;;;;18.90;12.67;;;10.60;99.90;;;;;;5007873;28;20882;-72
2022/11/13 09:46:15;;;;;;;17.73;13.57;;;10.60;99.90;;;;;;5010724;28;20919;-71
2022/11/13 09:48:51;;;;;;;24.17;14.17;;;10.60;99.90;;;;;;5008957;28;20431;-71
2022/11/13 09:51:36;;;;;;;15.17;11.53;;;10.60;99.90;;;;;;4997940;28;20181;-70
2022/11/13 09:54:08;;;;;;;19.70;11.70;;;10.70;99.90;;;;;;5003294;28;20800;-70
2022/11/13 09:56:55;;;;;;;17.43;12.47;;;10.70;99.90;;;;;;5006846;28;20430;-72
2022/11/13 09:59:33;;;;;;;14.10;11.10;;;10.70;99.90;;;;;;4990949;28;20804;-72
2022/11/13 10:02:19;;;;;;;17.83;12.60;;;10.80;99.90;;;;;;5005749;28;20406;-71
2022/11/13 10:05:13;;;;;;;15.80;11.13;;;10.80;99.90;;;;;;5009713;28;20426;-74
2022/11/13 10:07:56;;;;;;;19.50;13.50;;;10.80;99.90;;;;;;5010827;28;20403;-71
2022/11/13 10:10:58;;;;;;;18.90;13.77;;;10.70;99.90;;;;;;5010626;28;20454;-72
2022/11/13 10:13:33;;;;;;;15.67;11.50;;;10.80;99.90;;;;;;5005197;28;20502;-69
2022/11/13 10:16:33;;;;;;;13.93;11.50;;;10.90;99.90;;;;;;5007889;28;20431;-67
2022/11/13 10:19:21;;;;;;;15.40;10.30;;;11.00;99.90;;;;;;4995635;28;20882;-72
2022/11/13 10:21:57;;;;;;;16.70;12.03;;;11.00;99.90;;;;;;5012741;28;20419;-69
2022/11/13 10:24:37;;;;;;;15.93;10.53;;;11.00;99.90;;;;;;5012829;28;20522;-72
2022/11/13 10:27:11;;;;;;;12.70;10.63;;;11.00;99.90;;;;;;5011984;28;20482;-72
2022/11/13 10:29:37;;;;;;;13.30;10.60;;;10.90;99.90;;;;;;5009377;28;21119;-71
2022/11/13 10:32:23;;;;;;;17.90;11.20;;;10.90;99.90;;;;;;5012191;28;20411;-71
2022/11/13 10:34:55;;;;;;;15.50;11.63;;;11.00;99.90;;;;;;5013724;28;21206;-70
2022/11/13 10:37:33;;;;;;;13.30;11.73;;;11.00;99.90;;;;;;5014328;28;20502;-70
2022/11/13 10:39:59;;;;;;;15.20;12.43;;;11.00;99.90;;;;;;5014400;28;20462;-70
2022/11/13 10:42:36;;;;;;;13.80;11.80;;;11.10;99.90;;;;;;5005583;28;20420;-70
2022/11/13 10:45:02;;;;;;;16.03;12.07;;;11.10;99.90;;;;;;4994161;28;20217;-70
2022/11/13 10:47:31;;;;;;;16.60;12.50;;;11.00;99.90;;;;;;5010859;28;20873;-70
2022/11/13 10:50:07;;;;;;;16.80;11.07;;;11.00;99.90;;;;;;5011784;28;20451;-71
2022/11/13 10:52:33;;;;;;;13.23;10.57;;;11.00;99.90;;;;;;4991006;28;20487;-71
2022/11/13 10:55:20;;;;;;;14.97;10.83;;;11.10;99.90;;;;;;5007120;28;20442;-71
2022/11/13 10:58:01;;;;;;;13.20;10.20;;;11.10;99.90;;;;;;4996034;28;20953;-68
2022/11/13 11:00:34;;;;;;;16.17;10.80;;;11.10;99.90;;;;;;5014008;28;20423;-70
2022/11/13 11:03:00;;;;;;;15.40;10.93;;;11.20;99.90;;;;;;5014528;28;20787;-70
2022/11/13 11:05:26;;;;;;;11.70;10.10;;;11.10;99.90;;;;;;5008791;28;20479;-72
2022/11/13 11:07:56;;;;;;;20.43;11.60;;;11.10;99.90;;;;;;5013277;28;21114;-70
2022/11/13 11:10:34;;;;;;;15.33;11.60;;;11.10;99.90;;;;;;4996871;28;20487;-70
2022/11/13 11:13:11;;;;;;;13.83;9.90;;;11.20;99.90;;;;;;4979965;28;20434;-70
2022/11/13 11:16:09;;;;;;;14.63;8.90;;;11.10;99.90;;;;;;5013204;28;20426;-70
2022/11/13 11:18:41;;;;;;;10.90;9.53;;;11.00;99.90;;;;;;4966919;28;20446;-70
2022/11/13 11:21:14;;;;;;;13.23;9.70;;;11.00;99.90;;;;;;5006293;28;20455;-71
2022/11/13 11:24:02;;;;;;;12.60;9.87;;;11.00;99.90;;;;;;5011818;28;20422;-71
2022/11/13 11:26:42;;;;;;;12.80;8.30;;;11.00;99.90;;;;;;5002380;28;20412;-69
2022/11/13 11:29:13;;;;;;;13.63;9.37;;;11.00;99.90;;;;;;5013382;28;20454;-69
2022/11/13 11:32:22;;;;;;;10.63;8.97;;;11.00;99.90;;;;;;5012349;28;20419;-72
2022/11/13 11:37:30;;;;;;;16.67;10.30;;;11.20;99.90;;;;;;5010327;28;20497;-67
2022/11/13 11:40:06;;;;;;;11.80;9.10;;;11.20;99.90;;;;;;5011785;28;20415;-68
2022/11/13 11:42:51;;;;;;;14.10;8.67;;;11.20;99.90;;;;;;5013602;28;20411;-66
2022/11/13 11:45:28;;;;;;;15.03;9.77;;;11.10;99.90;;;;;;5013181;28;20427;-66
2022/11/13 11:47:55;;;;;;;12.20;10.23;;;11.20;99.90;;;;;;5013711;28;20498;-66
2022/11/13 11:50:42;;;;;;;12.20;9.07;;;11.20;99.90;;;;;;5013325;28;20454;-66
2022/11/13 11:53:21;;;;;;;11.37;9.10;;;11.30;99.90;;;;;;5013499;28;20439;-66
2022/11/13 11:56:01;;;;;;;16.47;9.60;;;11.30;99.90;;;;;;5013044;28;20438;-67
2022/11/13 11:59:11;;;;;;;11.33;9.00;;;11.30;99.90;;;;;;5012952;28;20417;-66
2022/11/13 12:02:01;;;;;;;13.23;8.30;;;11.40;99.90;;;;;;5006423;28;20570;-64
2022/11/13 12:04:35;;;;;;;11.60;9.80;;;11.40;99.90;;;;;;5012937;28;20480;-68
2022/11/13 12:07:25;;;;;;;12.27;9.37;;;11.40;99.90;;;;;;5012837;28;20443;-66
2022/11/13 12:10:23;;;;;;;12.50;8.73;;;11.40;99.90;;;;;;5013048;28;20451;-67
2022/11/13 12:13:34;;;;;;;9.60;8.60;;;11.40;99.90;;;;;;5012586;28;20423;-67
2022/11/13 12:16:18;;;;;;;16.27;10.33;;;11.40;99.90;;;;;;4981836;28;20459;-65
2022/11/13 12:19:14;;;;;;;14.40;9.63;;;11.40;99.90;;;;;;5012755;28;20465;-67
2022/11/13 12:22:12;;;;;;;14.17;9.80;;;11.40;99.90;;;;;;5012894;28;20400;-66
2022/11/13 12:24:47;;;;;;;16.17;10.50;;;11.40;99.90;;;;;;5012452;28;20434;-66
2022/11/13 12:27:37;;;;;;;12.83;9.53;;;11.50;99.90;;;;;;5011499;28;20423;-67
2022/11/13 12:30:19;;;;;;;11.67;10.47;;;11.50;99.90;;;;;;5012673;28;20482;-66
2022/11/13 12:33:04;;;;;;;13.17;9.97;;;11.50;99.90;;;;;;5012394;28;20454;-66
2022/11/13 12:35:30;;;;;;;17.80;12.10;;;11.40;99.90;;;;;;5011767;28;21026;-66
2022/11/13 12:38:07;;;;;;;13.93;10.83;;;11.50;99.90;;;;;;5012833;28;20427;-66
2022/11/13 12:41:10;;;;;;;14.83;9.83;;;11.50;99.90;;;;;;4997164;28;20230;-67
2022/11/13 12:43:54;;;;;;;12.93;9.90;;;11.50;99.90;;;;;;5008559;28;20419;-67
2022/11/13 12:46:20;;;;;;;13.57;10.20;;;11.50;99.90;;;;;;4997642;28;20428;-67
2022/11/13 12:48:47;;;;;;;16.53;11.00;;;11.50;99.90;;;;;;5006355;28;20482;-67